createdAt,value
2019-03-12T00:03:18.579Z,0.40
2019-03-12T00:07:23.467Z,0.70
2019-03-12T00:11:28.424Z,0.40
2019-03-12T00:15:33.335Z,0.43
2019-03-12T00:19:38.340Z,0.30
2019-03-12T00:23:43.207Z,0.40
2019-03-12T00:27:51.259Z,0.73
2019-03-12T00:31:56.158Z,0.47
2019-03-12T00:36:01.041Z,0.50
2019-03-12T00:40:06.585Z,0.50
2019-03-12T00:44:11.496Z,0.50
2019-03-12T00:48:21.810Z,0.60
2019-03-12T00:52:26.665Z,0.50
2019-03-12T00:56:31.610Z,0.50
2019-03-12T01:00:36.577Z,0.40
2019-03-12T01:04:41.439Z,1.07
2019-03-12T01:08:57.694Z,1.10
2019-03-12T01:13:07.929Z,0.83
2019-03-12T01:17:12.819Z,0.50
2019-03-12T01:21:17.690Z,0.57
2019-03-12T01:25:22.618Z,0.60
2019-03-12T01:29:27.641Z,0.60
2019-03-12T01:33:32.882Z,0.40
2019-03-12T01:37:37.786Z,0.40
2019-03-12T01:41:43.803Z,0.70
2019-03-12T01:45:48.704Z,1.57
2019-03-12T01:49:54.721Z,0.50
2019-03-12T01:53:59.606Z,0.50
2019-03-12T01:58:04.508Z,0.60
2019-03-12T02:02:09.583Z,0.50
2019-03-12T02:06:14.489Z,0.30
2019-03-12T02:10:23.810Z,0.80
2019-03-12T02:14:30.150Z,0.30
2019-03-12T02:18:41.325Z,0.57
2019-03-12T02:22:46.258Z,0.50
2019-03-12T02:26:52.339Z,0.50
2019-03-12T02:31:00.627Z,0.30
2019-03-12T02:35:07.316Z,0.40
2019-03-12T02:39:12.205Z,0.70
2019-03-12T02:43:17.472Z,0.90
2019-03-12T02:47:22.370Z,0.67
2019-03-12T02:51:27.434Z,0.70
2019-03-12T02:55:32.560Z,1.20
2019-03-12T02:59:37.843Z,5.10
2019-03-12T03:03:49.027Z,1.13
2019-03-12T03:08:02.818Z,0.73
2019-03-12T03:12:07.826Z,0.70
2019-03-12T03:16:13.896Z,0.60
2019-03-12T03:20:18.784Z,0.50
2019-03-12T03:24:23.661Z,4.60
2019-03-12T03:28:28.635Z,2.83
2019-03-12T03:32:38.139Z,3.17
2019-03-12T03:36:44.210Z,2.20
2019-03-12T03:40:51.326Z,2.20
2019-03-12T03:44:56.231Z,2.70
2019-03-12T03:49:08.664Z,3.73
2019-03-12T03:53:13.550Z,1.93
2019-03-12T03:57:18.440Z,1.20
2019-03-12T04:01:23.771Z,1.20
2019-03-12T04:05:28.973Z,2.37
2019-03-12T04:09:34.256Z,1.67
2019-03-12T04:13:39.537Z,1.10
2019-03-12T04:17:52.679Z,1.53
2019-03-12T04:21:57.580Z,0.90
2019-03-12T04:26:02.607Z,1.10
2019-03-12T04:30:07.879Z,1.50
2019-03-12T04:34:28.399Z,1.20
2019-03-12T04:38:33.426Z,1.17
2019-03-12T04:42:38.335Z,1.70
2019-03-12T04:46:45.427Z,1.37
2019-03-12T04:50:50.272Z,0.90
2019-03-12T04:55:01.150Z,1.10
2019-03-12T04:59:06.151Z,1.80
2019-03-12T05:03:13.266Z,1.47
2019-03-12T05:07:18.157Z,1.60
2019-03-12T05:11:24.223Z,1.27
2019-03-12T05:15:29.102Z,1.57
2019-03-12T05:19:34.267Z,0.90
2019-03-12T05:23:39.157Z,1.13
2019-03-12T05:27:45.562Z,0.83
2019-03-12T05:31:50.523Z,0.97
2019-03-12T05:35:55.433Z,1.77
2019-03-12T05:40:00.641Z,0.70
2019-03-12T05:44:05.994Z,1.20
2019-03-12T05:48:11.214Z,1.83
2019-03-12T05:52:16.988Z,1.00
2019-03-12T05:56:22.396Z,1.63
2019-03-12T06:00:27.872Z,2.37
2019-03-12T06:04:33.201Z,2.00
2019-03-12T06:08:39.507Z,2.00
2019-03-12T06:12:44.763Z,1.60
2019-03-12T06:16:50.033Z,2.87
2019-03-12T06:20:55.208Z,4.17
2019-03-12T06:25:04.885Z,1.67
2019-03-12T06:29:10.078Z,2.10
2019-03-12T06:33:24.164Z,1.90
2019-03-12T06:37:45.349Z,1.77
2019-03-12T06:42:09.736Z,1.50
2019-03-12T06:46:35.987Z,1.20
2019-03-12T06:50:58.490Z,1.67
2019-03-12T06:55:15.019Z,1.77
2019-03-12T06:59:41.325Z,1.60
2019-03-12T07:04:01.803Z,1.33
2019-03-12T07:08:28.774Z,2.17
2019-03-12T07:13:01.707Z,1.20
2019-03-12T07:17:33.349Z,0.70
2019-03-12T07:21:58.138Z,0.40
2019-03-12T07:26:14.127Z,0.50
2019-03-12T07:30:41.382Z,0.50
2019-03-12T07:35:11.707Z,0.87
2019-03-12T07:39:34.344Z,0.57
2019-03-12T07:43:51.842Z,0.57
2019-03-12T07:48:16.275Z,0.30
2019-03-12T07:52:40.737Z,0.30
2019-03-12T07:57:02.721Z,0.50
2019-03-12T08:01:14.340Z,0.40
2019-03-12T08:05:38.573Z,0.50
2019-03-12T08:10:11.284Z,0.50
2019-03-12T08:14:43.134Z,0.40
2019-03-12T08:19:03.893Z,0.60
2019-03-12T08:23:25.201Z,0.30
2019-03-12T08:27:48.565Z,0.40
2019-03-12T08:32:05.269Z,0.40
2019-03-12T08:36:19.749Z,0.50
2019-03-12T08:40:52.064Z,0.60
2019-03-12T08:45:21.361Z,0.30
2019-03-12T08:49:54.670Z,0.40
2019-03-12T08:54:28.457Z,0.40
2019-03-12T08:58:57.332Z,0.50
2019-03-12T09:03:24.573Z,0.30
2019-03-12T09:07:42.917Z,0.30
2019-03-12T09:12:06.891Z,0.30
2019-03-12T09:16:17.940Z,0.60
2019-03-12T09:20:44.875Z,0.40
2019-03-12T09:25:18.968Z,0.30
2019-03-12T09:29:52.032Z,0.47
2019-03-12T09:34:17.263Z,0.30
2019-03-12T09:39:01.586Z,0.50
2019-03-12T09:43:25.450Z,0.30
2019-03-12T09:47:49.599Z,0.40
2019-03-12T09:52:02.648Z,0.40
2019-03-12T09:56:14.724Z,0.60
2019-03-12T10:00:50.811Z,0.30
2019-03-12T10:05:14.834Z,0.50
2019-03-12T10:09:40.026Z,0.60
2019-03-12T10:14:23.763Z,0.30
2019-03-12T10:18:53.122Z,0.30
2019-03-12T10:23:06.965Z,0.40
2019-03-12T10:27:41.195Z,0.40
2019-03-12T10:32:00.965Z,0.33
2019-03-12T10:36:21.933Z,0.30
2019-03-12T10:40:44.520Z,0.30
2019-03-12T10:45:09.830Z,0.30
2019-03-12T10:49:15.142Z,0.30
2019-03-12T10:53:20.347Z,0.30
2019-03-12T10:57:25.597Z,0.30
2019-03-12T11:01:30.759Z,0.40
2019-03-12T11:05:45.371Z,0.50
2019-03-12T11:09:42.852Z,0.33
2019-03-12T11:13:48.205Z,0.33
2019-03-12T11:17:53.136Z,0.40
2019-03-12T11:21:58.075Z,0.30
2019-03-12T11:26:03.315Z,0.40
2019-03-12T11:30:10.754Z,0.30
2019-03-12T11:34:15.703Z,0.40
2019-03-12T11:38:20.594Z,0.40
2019-03-12T11:42:25.711Z,0.40
2019-03-12T11:46:41.854Z,0.30
2019-03-12T11:50:37.247Z,0.40
2019-03-12T11:54:42.778Z,0.30
2019-03-12T11:58:48.005Z,0.60
2019-03-12T12:02:59.745Z,0.40
2019-03-12T12:07:00.202Z,0.40
2019-03-12T12:11:05.657Z,0.40
2019-03-12T12:15:12.049Z,0.40
2019-03-12T12:19:17.395Z,0.40
2019-03-12T12:23:24.158Z,0.40
2019-03-12T12:27:29.050Z,0.40
2019-03-12T12:31:33.980Z,0.70
2019-03-12T12:35:39.261Z,0.40
2019-03-12T12:39:44.198Z,0.40
2019-03-12T12:43:49.285Z,0.40
2019-03-12T12:47:54.186Z,0.40
2019-03-12T12:51:59.385Z,0.30
2019-03-12T12:56:04.241Z,0.60
2019-03-12T13:00:15.366Z,0.47
2019-03-12T13:04:20.253Z,0.40
2019-03-12T13:08:25.311Z,0.40
2019-03-12T13:12:30.297Z,0.50
2019-03-12T13:16:35.633Z,0.63
2019-03-12T13:20:40.667Z,0.60
2019-03-12T13:24:45.654Z,0.40
2019-03-12T13:28:50.923Z,0.30
2019-03-12T13:32:55.860Z,0.43
2019-03-12T13:37:02.905Z,0.50
2019-03-12T13:41:07.967Z,0.40
2019-03-12T13:45:14.878Z,0.50
2019-03-12T13:49:20.042Z,0.37
2019-03-12T13:53:24.965Z,0.40
2019-03-12T13:57:29.905Z,0.40
2019-03-12T14:01:35.988Z,0.37
2019-03-12T14:05:42.742Z,0.40
2019-03-12T14:09:51.601Z,0.30
2019-03-12T14:13:58.114Z,0.47
2019-03-12T14:18:05.090Z,0.43
2019-03-12T14:22:11.786Z,0.40
2019-03-12T14:26:19.679Z,0.50
2019-03-12T14:30:25.984Z,0.40
2019-03-12T14:34:31.974Z,0.40
2019-03-12T14:38:40.555Z,0.40
2019-03-12T14:42:47.970Z,0.37
2019-03-12T14:46:54.224Z,0.50
2019-03-12T14:51:05.882Z,0.40
2019-03-12T14:55:10.961Z,0.50
2019-03-12T14:59:15.961Z,0.40
2019-03-12T15:03:20.995Z,0.30
2019-03-12T15:07:25.916Z,1.10
2019-03-12T15:11:31.195Z,1.53
2019-03-12T15:15:36.134Z,1.00
2019-03-12T15:19:41.323Z,0.40
2019-03-12T15:23:46.182Z,0.80
2019-03-12T15:27:51.411Z,0.40
2019-03-12T15:32:04.087Z,0.50
2019-03-12T15:36:03.051Z,0.43
2019-03-12T15:40:08.331Z,0.50
2019-03-12T15:44:13.484Z,0.67
2019-03-12T15:48:21.403Z,0.30
2019-03-12T15:52:25.099Z,0.53
2019-03-12T15:56:30.008Z,0.47
2019-03-12T16:00:35.070Z,0.60
2019-03-12T16:04:39.925Z,1.20
2019-03-12T16:08:44.959Z,0.77
2019-03-12T16:12:50.401Z,0.60
2019-03-12T16:16:55.939Z,0.50
2019-03-12T16:21:01.041Z,1.37
2019-03-12T16:25:06.225Z,1.20
2019-03-12T16:29:11.602Z,0.57
2019-03-12T16:33:17.014Z,0.80
2019-03-12T16:37:26.527Z,0.60
2019-03-12T16:41:31.790Z,0.40
2019-03-12T16:45:37.212Z,0.60
2019-03-12T16:49:42.529Z,0.40
2019-03-12T16:53:48.155Z,0.33
2019-03-12T16:57:53.464Z,0.73
2019-03-12T17:01:58.754Z,0.77
2019-03-12T17:06:04.037Z,0.53
2019-03-12T17:10:10.385Z,0.40
2019-03-12T17:14:15.615Z,0.60
2019-03-12T17:18:20.931Z,1.00
2019-03-12T17:22:26.288Z,1.03
2019-03-12T17:26:31.639Z,0.70
2019-03-12T17:30:36.915Z,0.90
2019-03-12T17:34:42.301Z,1.23
2019-03-12T17:38:47.662Z,1.70
2019-03-12T17:42:53.358Z,2.10
2019-03-12T17:46:58.673Z,1.40
2019-03-12T17:51:03.954Z,1.80
2019-03-12T17:55:14.902Z,1.20
2019-03-12T17:59:19.958Z,1.43
2019-03-12T18:03:25.212Z,2.80
2019-03-12T18:07:30.218Z,2.67
2019-03-12T18:11:35.191Z,2.60
2019-03-12T18:15:40.346Z,3.27
2019-03-12T18:19:45.371Z,2.50
2019-03-12T18:23:52.030Z,2.60
2019-03-12T18:27:57.559Z,2.50
2019-03-12T18:32:02.633Z,3.10
2019-03-12T18:36:08.644Z,2.37
2019-03-12T18:40:16.340Z,2.40
2019-03-12T18:44:21.451Z,3.33
2019-03-12T18:48:26.472Z,2.20
2019-03-12T18:52:31.612Z,3.07
2019-03-12T18:56:38.420Z,3.17
2019-03-12T19:00:44.084Z,2.00
2019-03-12T19:04:49.251Z,2.83
2019-03-12T19:08:54.528Z,2.47
2019-03-12T19:12:59.794Z,2.60
2019-03-12T19:17:05.266Z,2.90
2019-03-12T19:21:12.650Z,2.10
2019-03-12T19:25:21.599Z,2.67
2019-03-12T19:29:26.584Z,2.33
2019-03-12T19:33:31.783Z,1.90
2019-03-12T19:37:36.830Z,2.20
2019-03-12T19:41:41.875Z,3.80
2019-03-12T19:45:46.927Z,3.00
2019-03-12T19:49:52.043Z,2.77
2019-03-12T19:53:56.968Z,3.80
2019-03-12T19:58:02.093Z,3.23
2019-03-12T20:02:16.195Z,3.10
2019-03-12T20:06:14.766Z,3.10
2019-03-12T20:10:54.984Z,3.43
2019-03-12T20:15:35.376Z,2.83
2019-03-12T20:20:42.585Z,2.30
2019-03-12T20:25:24.213Z,1.70
2019-03-12T20:30:22.316Z,2.20
2019-03-12T20:35:23.855Z,2.23
2019-03-12T20:40:04.545Z,2.87
2019-03-12T20:44:52.181Z,3.27
2019-03-12T20:49:49.385Z,2.67
2019-03-12T20:54:26.804Z,3.10
2019-03-12T20:59:27.528Z,3.03
2019-03-12T21:04:05.780Z,3.03
2019-03-12T21:08:58.040Z,2.60
2019-03-12T21:13:39.016Z,4.20
2019-03-12T21:18:21.510Z,3.27
2019-03-12T21:22:46.049Z,1.87
2019-03-12T21:27:17.714Z,2.40
2019-03-12T21:31:24.608Z,2.57
2019-03-12T21:35:29.674Z,2.83
2019-03-12T21:39:34.795Z,2.10
2019-03-12T21:43:40.018Z,2.30
2019-03-12T21:47:45.099Z,2.73
2019-03-12T21:51:49.981Z,2.80
2019-03-12T21:55:54.989Z,4.47
2019-03-12T22:00:00.389Z,2.73
2019-03-12T22:04:05.538Z,3.60
2019-03-12T22:08:10.582Z,3.10
2019-03-12T22:12:15.649Z,3.50
2019-03-12T22:16:20.791Z,3.23
2019-03-12T22:20:25.686Z,3.80
2019-03-12T22:24:30.918Z,2.20
2019-03-12T22:28:35.937Z,2.93
2019-03-12T22:32:41.332Z,3.50
2019-03-12T22:36:46.560Z,3.07
2019-03-12T22:40:51.668Z,1.83
2019-03-12T22:44:56.632Z,3.03
2019-03-12T22:49:01.564Z,2.37
2019-03-12T22:53:06.512Z,2.73
2019-03-12T22:57:11.441Z,1.90
2019-03-12T23:01:16.550Z,2.23
2019-03-12T23:05:21.817Z,2.13
2019-03-12T23:09:26.834Z,2.83
2019-03-12T23:13:31.824Z,2.20
2019-03-12T23:17:36.883Z,2.30
2019-03-12T23:21:41.897Z,2.00
2019-03-12T23:25:46.893Z,2.60
2019-03-12T23:29:51.965Z,2.00
2019-03-12T23:33:57.132Z,2.70
2019-03-12T23:38:02.157Z,2.90
2019-03-12T23:42:07.572Z,1.87
2019-03-12T23:46:12.636Z,1.70
2019-03-12T23:50:18.363Z,3.00
2019-03-12T23:54:23.826Z,2.30
2019-03-12T23:58:32.050Z,3.10
